Time;durP1;ratioP1;P1;durP2;ratioP2;P2;SDS_P1;SDS_P2;PMS_P1;PMS_P2;Temp;Humidity;BMP_temperature;BMP_pressure;BME280_temperature;BME280_humidity;BME280_pressure;Samples;Min_cycle;Max_cycle;Signal;HPM_P1;HPM_P2
2021/09/13 00:01:30;;;;;;;1.00;0.90;;;;;;;;;;4994030;28;20478;-73
2021/09/13 00:03:56;;;;;;;2.87;1.23;;;;;;;;;;4993688;28;20440;-73
2021/09/13 00:06:22;;;;;;;1.20;1.10;;;;;;;;;;4993298;28;21018;-73
2021/09/13 00:08:48;;;;;;;1.50;1.40;;;;;;;;;;4992911;28;20501;-73
2021/09/13 00:11:14;;;;;;;1.70;0.90;;;;;;;;;;4993131;28;20488;-73
2021/09/13 00:13:40;;;;;;;1.17;1.10;;;;;;;;;;4992020;28;20473;-73
2021/09/13 00:16:06;;;;;;;1.10;1.03;;;;;;;;;;4991141;28;20953;-73
2021/09/13 00:18:32;;;;;;;2.10;1.67;;;;;;;;;;4992434;28;20588;-73
2021/09/13 00:20:58;;;;;;;1.57;1.07;;;;;;;;;;4994216;28;20448;-73
2021/09/13 00:23:24;;;;;;;2.03;1.90;;;;;;;;;;5008651;28;20496;-73
2021/09/13 00:25:50;;;;;;;3.65;3.40;;;;;;;;;;4992319;28;20964;-73
2021/09/13 00:28:16;;;;;;;1.20;1.10;;;;;;;;;;4992900;28;20230;-73
2021/09/13 00:30:42;;;;;;;1.17;0.97;;;;;;;;;;4993494;28;20445;-74
2021/09/13 00:33:08;;;;;;;2.03;1.67;;;;;;;;;;4992607;28;20944;-73
2021/09/13 00:35:34;;;;;;;0.97;0.97;;;;;;;;;;4995130;28;20451;-73
2021/09/13 00:38:00;;;;;;;2.23;2.03;;;;;;;;;;4993582;28;21123;-74
2021/09/13 00:40:26;;;;;;;1.27;1.07;;;;;;;;;;4994417;28;20475;-74
2021/09/13 00:42:52;;;;;;;2.53;2.33;;;;;;;;;;4993034;28;20431;-74
2021/09/13 00:45:18;;;;;;;1.17;1.10;;;;;;;;;;4993553;28;20476;-74
2021/09/13 00:47:44;;;;;;;1.27;1.17;;;;;;;;;;4992975;28;20463;-74
2021/09/13 00:50:10;;;;;;;1.83;1.73;;;;;;;;;;4995153;28;20179;-74
2021/09/13 00:52:37;;;;;;;1.30;1.20;;;;;;;;;;4993659;28;20414;-74
2021/09/13 00:55:03;;;;;;;1.57;1.43;;;;;;;;;;4993081;28;20443;-74
2021/09/13 00:57:29;;;;;;;1.57;1.37;;;;;;;;;;4987064;28;20492;-74
2021/09/13 00:59:56;;;;;;;2.90;1.40;;;;;;;;;;4993988;28;20447;-74
2021/09/13 01:02:22;;;;;;;3.80;1.43;;;;;;;;;;4992139;28;20929;-74
2021/09/13 01:04:48;;;;;;;2.38;2.17;;;;;;;;;;4993623;28;20560;-74
2021/09/13 01:07:14;;;;;;;1.27;1.17;;;;;;;;;;4991611;28;20315;-74
2021/09/13 01:09:40;;;;;;;1.50;1.40;;;;;;;;;;4992935;28;20507;-73
2021/09/13 01:12:07;;;;;;;2.07;1.10;;;;;;;;;;4993846;28;20442;-74
2021/09/13 01:14:40;;;;;;;2.00;1.45;;;;;;;;;;4993500;28;20444;-73
2021/09/13 01:17:07;;;;;;;1.40;1.30;;;;;;;;;;5002220;28;20237;-73
2021/09/13 01:19:33;;;;;;;2.70;2.13;;;;;;;;;;4993781;28;20252;-74
2021/09/13 01:22:01;;;;;;;2.70;2.17;;;;;;;;;;4993565;28;20559;-74
2021/09/13 01:24:30;;;;;;;2.90;1.60;;;;;;;;;;4994588;28;20203;-74
2021/09/13 01:27:01;;;;;;;1.63;1.50;;;;;;;;;;4988321;28;20264;-74
2021/09/13 01:29:27;;;;;;;2.00;1.90;;;;;;;;;;4993182;28;20189;-73
2021/09/13 01:31:53;;;;;;;1.15;1.05;;;;;;;;;;4993934;28;20435;-73
2021/09/13 01:34:19;;;;;;;2.43;2.23;;;;;;;;;;4994198;28;20718;-74
2021/09/13 01:36:44;;;;;;;4.80;2.47;;;;;;;;;;4999012;28;20471;-74
2021/09/13 01:39:10;;;;;;;2.17;1.97;;;;;;;;;;5001262;28;21017;-73
2021/09/13 01:41:36;;;;;;;3.93;2.97;;;;;;;;;;4989710;28;20889;-74
2021/09/13 01:44:04;;;;;;;1.90;1.55;;;;;;;;;;4987203;28;20460;-73
2021/09/13 01:46:30;;;;;;;1.63;1.52;;;;;;;;;;4993296;28;20623;-74
2021/09/13 01:48:56;;;;;;;2.10;1.42;;;;;;;;;;4994487;28;20231;-74
2021/09/13 01:51:21;;;;;;;2.00;1.90;;;;;;;;;;4992899;28;20196;-74
2021/09/13 01:53:47;;;;;;;1.70;1.60;;;;;;;;;;4992726;28;20445;-74
2021/09/13 01:56:14;;;;;;;2.00;1.90;;;;;;;;;;4987395;28;20463;-74
2021/09/13 01:58:40;;;;;;;3.63;3.33;;;;;;;;;;4991932;28;20184;-74
2021/09/13 02:01:06;;;;;;;2.60;2.40;;;;;;;;;;4990839;28;20505;-74
2021/09/13 02:03:32;;;;;;;4.07;3.67;;;;;;;;;;4993359;28;20440;-74
2021/09/13 02:05:58;;;;;;;1.17;1.05;;;;;;;;;;4992654;28;20506;-74
2021/09/13 02:08:24;;;;;;;4.25;3.10;;;;;;;;;;4993353;28;20654;-73
2021/09/13 02:10:50;;;;;;;2.33;1.47;;;;;;;;;;4992012;28;20265;-74
2021/09/13 02:13:16;;;;;;;3.87;1.50;;;;;;;;;;4990419;28;20504;-74
2021/09/13 02:15:42;;;;;;;3.73;3.40;;;;;;;;;;4992656;28;20462;-73
2021/09/13 02:18:08;;;;;;;7.13;1.63;;;;;;;;;;4993062;28;20421;-73
2021/09/13 02:20:34;;;;;;;2.27;2.17;;;;;;;;;;4992558;28;20474;-73
2021/09/13 02:23:00;;;;;;;1.43;1.33;;;;;;;;;;4992796;28;20469;-73
2021/09/13 02:25:26;;;;;;;2.07;1.97;;;;;;;;;;4991182;28;20943;-74
2021/09/13 02:27:52;;;;;;;2.20;2.10;;;;;;;;;;4992108;28;20499;-74
2021/09/13 02:30:18;;;;;;;4.77;2.13;;;;;;;;;;4993188;28;20833;-74
2021/09/13 02:32:43;;;;;;;1.20;1.10;;;;;;;;;;4992539;28;20429;-73
2021/09/13 02:35:10;;;;;;;2.93;2.73;;;;;;;;;;4993045;28;20523;-73
2021/09/13 02:37:36;;;;;;;1.98;1.83;;;;;;;;;;4992323;28;20945;-73
2021/09/13 02:40:03;;;;;;;1.13;1.02;;;;;;;;;;5007692;28;20233;-73
2021/09/13 02:42:29;;;;;;;2.33;2.22;;;;;;;;;;4992139;28;20621;-74
2021/09/13 02:44:56;;;;;;;1.73;1.58;;;;;;;;;;4991622;28;20189;-74
2021/09/13 02:47:22;;;;;;;2.15;2.05;;;;;;;;;;4990566;28;20777;-73
2021/09/13 02:49:48;;;;;;;2.75;1.52;;;;;;;;;;4992083;28;20181;-74
2021/09/13 02:52:14;;;;;;;5.10;2.37;;;;;;;;;;4992532;28;20185;-74
2021/09/13 02:54:40;;;;;;;6.50;2.00;;;;;;;;;;4992313;28;20435;-73
2021/09/13 02:57:06;;;;;;;1.30;1.20;;;;;;;;;;4991414;28;20803;-74
2021/09/13 02:59:32;;;;;;;1.53;1.43;;;;;;;;;;4989945;28;20410;-74
2021/09/13 03:01:58;;;;;;;1.80;1.70;;;;;;;;;;4991399;28;20471;-74
2021/09/13 03:04:24;;;;;;;1.00;0.83;;;;;;;;;;4992156;28;20442;-74
2021/09/13 03:06:51;;;;;;;0.90;0.90;;;;;;;;;;4999770;28;20849;-74
2021/09/13 03:09:17;;;;;;;1.60;1.40;;;;;;;;;;4990728;28;21002;-71
2021/09/13 03:11:43;;;;;;;1.00;0.90;;;;;;;;;;4989595;28;20204;-74
2021/09/13 03:14:09;;;;;;;1.20;0.80;;;;;;;;;;4991264;28;20186;-74
2021/09/13 03:16:35;;;;;;;2.93;2.20;;;;;;;;;;4991438;28;20218;-74
2021/09/13 03:19:01;;;;;;;5.00;3.40;;;;;;;;;;4991436;28;20785;-74
2021/09/13 03:21:27;;;;;;;3.13;2.77;;;;;;;;;;4992069;28;20883;-74
2021/09/13 03:23:53;;;;;;;3.33;1.43;;;;;;;;;;4990720;28;20450;-73
2021/09/13 03:26:19;;;;;;;2.17;1.95;;;;;;;;;;4991674;28;20591;-74
2021/09/13 03:28:45;;;;;;;2.60;2.40;;;;;;;;;;4992358;28;20259;-73
2021/09/13 03:31:11;;;;;;;1.50;1.40;;;;;;;;;;4992291;28;20445;-74
2021/09/13 03:33:37;;;;;;;0.90;0.77;;;;;;;;;;4991512;28;20848;-73
2021/09/13 03:36:04;;;;;;;1.40;1.20;;;;;;;;;;4994973;28;20295;-73
2021/09/13 03:38:30;;;;;;;2.20;1.38;;;;;;;;;;4992618;28;20877;-74
2021/09/13 03:40:56;;;;;;;1.10;0.67;;;;;;;;;;4991825;28;20265;-74
2021/09/13 03:43:22;;;;;;;2.13;1.83;;;;;;;;;;4991999;28;20407;-73
2021/09/13 03:45:48;;;;;;;2.78;2.60;;;;;;;;;;4990438;28;20786;-73
2021/09/13 03:48:14;;;;;;;1.80;1.70;;;;;;;;;;4991378;28;20282;-74
2021/09/13 03:50:40;;;;;;;1.17;0.80;;;;;;;;;;4977561;28;20218;-73
2021/09/13 03:53:06;;;;;;;2.45;1.35;;;;;;;;;;4987745;28;20521;-73
2021/09/13 03:55:35;;;;;;;2.33;2.23;;;;;;;;;;4987793;28;20277;-74
2021/09/13 03:58:01;;;;;;;2.13;1.92;;;;;;;;;;4991763;28;20419;-74
2021/09/13 04:00:27;;;;;;;1.10;1.00;;;;;;;;;;4990155;28;20705;-74
2021/09/13 04:02:53;;;;;;;1.38;1.27;;;;;;;;;;4991028;28;20439;-73
2021/09/13 04:05:22;;;;;;;2.22;2.03;;;;;;;;;;4991912;28;20210;-74
2021/09/13 04:10:22;;;;;;;2.45;2.05;;;;;;;;;;4989799;28;20200;-73
2021/09/13 04:12:48;;;;;;;1.40;1.30;;;;;;;;;;4988994;28;20223;-74
2021/09/13 04:15:14;;;;;;;1.47;1.20;;;;;;;;;;4991068;28;20197;-74
2021/09/13 04:17:41;;;;;;;1.10;1.00;;;;;;;;;;4990573;28;20458;-74
2021/09/13 04:20:07;;;;;;;2.58;2.22;;;;;;;;;;4991253;28;20192;-74
2021/09/13 04:22:33;;;;;;;2.08;1.42;;;;;;;;;;4984779;28;20333;-74
2021/09/13 04:25:00;;;;;;;2.20;2.10;;;;;;;;;;4988322;28;20277;-74
2021/09/13 04:27:26;;;;;;;1.50;1.40;;;;;;;;;;4990700;28;20507;-74
2021/09/13 04:29:52;;;;;;;1.20;1.10;;;;;;;;;;4989455;28;20696;-74
2021/09/13 04:32:18;;;;;;;1.50;1.40;;;;;;;;;;4991277;28;20199;-74
2021/09/13 04:34:44;;;;;;;1.00;0.90;;;;;;;;;;4990696;28;20200;-74
2021/09/13 04:37:10;;;;;;;1.43;1.10;;;;;;;;;;4993838;28;20462;-74
2021/09/13 04:39:36;;;;;;;1.23;1.13;;;;;;;;;;5000001;28;20437;-74
2021/09/13 04:42:02;;;;;;;1.80;1.53;;;;;;;;;;4994875;28;20688;-74
2021/09/13 04:44:28;;;;;;;1.27;1.17;;;;;;;;;;4994796;28;20420;-74
2021/09/13 04:46:54;;;;;;;1.50;1.40;;;;;;;;;;4994117;28;20728;-75
2021/09/13 04:49:21;;;;;;;1.67;1.57;;;;;;;;;;4994247;28;20791;-74
2021/09/13 04:51:47;;;;;;;2.97;1.85;;;;;;;;;;4994313;28;20834;-74
2021/09/13 04:54:13;;;;;;;1.07;0.97;;;;;;;;;;4994843;28;20231;-73
2021/09/13 04:56:39;;;;;;;5.80;4.77;;;;;;;;;;4994036;28;20438;-73
2021/09/13 04:59:05;;;;;;;1.53;1.43;;;;;;;;;;4994615;28;20426;-73
2021/09/13 05:01:31;;;;;;;1.47;1.37;;;;;;;;;;4994212;28;20516;-74
2021/09/13 05:03:56;;;;;;;2.07;1.23;;;;;;;;;;4993736;28;20498;-74
2021/09/13 05:06:22;;;;;;;1.47;1.20;;;;;;;;;;4998538;28;20635;-74
2021/09/13 05:08:48;;;;;;;2.13;1.03;;;;;;;;;;5004265;28;20893;-74
2021/09/13 05:11:14;;;;;;;1.10;1.00;;;;;;;;;;4994449;28;20945;-74
2021/09/13 05:13:40;;;;;;;2.30;2.10;;;;;;;;;;4994066;28;20914;-73
2021/09/13 05:16:06;;;;;;;1.00;0.90;;;;;;;;;;4988859;28;20459;-74
2021/09/13 05:18:32;;;;;;;1.00;0.90;;;;;;;;;;4989930;28;20457;-74
2021/09/13 05:20:58;;;;;;;1.40;1.30;;;;;;;;;;4994268;28;20208;-73
2021/09/13 05:23:24;;;;;;;1.60;1.50;;;;;;;;;;4993778;28;20245;-73
2021/09/13 05:25:50;;;;;;;2.85;2.08;;;;;;;;;;5004104;28;20937;-73
2021/09/13 05:28:16;;;;;;;3.60;1.70;;;;;;;;;;4998022;28;20230;-74
2021/09/13 05:30:42;;;;;;;2.93;2.70;;;;;;;;;;4993099;28;20425;-72
2021/09/13 05:33:08;;;;;;;2.27;2.10;;;;;;;;;;4993819;28;20411;-74
2021/09/13 05:35:34;;;;;;;1.23;1.13;;;;;;;;;;4993110;28;20989;-73
2021/09/13 05:38:00;;;;;;;1.13;0.90;;;;;;;;;;5004158;28;20911;-74
2021/09/13 05:40:26;;;;;;;1.50;1.40;;;;;;;;;;5013603;28;20211;-73
2021/09/13 05:42:52;;;;;;;4.87;1.50;;;;;;;;;;5011270;28;20547;-73
2021/09/13 05:45:18;;;;;;;2.07;1.70;;;;;;;;;;4993696;28;20799;-73
2021/09/13 05:47:44;;;;;;;1.90;1.80;;;;;;;;;;4991907;28;20443;-73
2021/09/13 05:50:10;;;;;;;1.08;0.98;;;;;;;;;;4991459;28;20962;-73
2021/09/13 05:52:36;;;;;;;2.17;1.95;;;;;;;;;;4993770;28;20182;-74
2021/09/13 05:55:02;;;;;;;0.90;0.73;;;;;;;;;;4992419;28;20902;-74
2021/09/13 05:57:29;;;;;;;1.90;1.50;;;;;;;;;;4992052;28;20454;-74
2021/09/13 05:59:55;;;;;;;1.10;0.98;;;;;;;;;;4992241;28;20230;-73
2021/09/13 06:02:21;;;;;;;1.30;1.20;;;;;;;;;;4991636;28;20626;-74
2021/09/13 06:04:47;;;;;;;1.93;1.83;;;;;;;;;;4993719;28;20457;-73
2021/09/13 06:07:13;;;;;;;1.40;1.20;;;;;;;;;;4997032;28;20456;-73
2021/09/13 06:09:39;;;;;;;1.75;1.65;;;;;;;;;;5004298;28;20480;-73
2021/09/13 06:12:05;;;;;;;5.57;1.90;;;;;;;;;;4993011;28;20663;-73
2021/09/13 06:14:31;;;;;;;1.60;1.50;;;;;;;;;;4991310;28;20932;-73
2021/09/13 06:16:57;;;;;;;1.27;1.03;;;;;;;;;;4992131;28;20204;-73
2021/09/13 06:19:23;;;;;;;1.57;1.27;;;;;;;;;;4992232;28;20972;-73
2021/09/13 06:21:50;;;;;;;1.95;1.70;;;;;;;;;;4993015;28;20468;-73
2021/09/13 06:24:16;;;;;;;1.20;1.02;;;;;;;;;;4992980;28;20190;-73
2021/09/13 06:26:42;;;;;;;1.20;1.10;;;;;;;;;;4992474;28;20204;-74
2021/09/13 06:29:08;;;;;;;1.42;1.33;;;;;;;;;;4993110;28;20250;-74
2021/09/13 06:31:34;;;;;;;2.20;2.00;;;;;;;;;;4992568;28;20600;-73
2021/09/13 06:34:00;;;;;;;1.00;0.90;;;;;;;;;;4993061;28;20403;-74
2021/09/13 06:36:27;;;;;;;2.25;2.10;;;;;;;;;;4996757;28;20450;-73
2021/09/13 06:38:53;;;;;;;1.60;1.50;;;;;;;;;;5002651;28;20188;-73
2021/09/13 06:41:19;;;;;;;1.10;1.00;;;;;;;;;;4993018;28;20204;-74
2021/09/13 06:43:46;;;;;;;0.93;0.82;;;;;;;;;;4992976;28;20262;-74
2021/09/13 06:48:47;;;;;;;1.05;0.95;;;;;;;;;;4993354;28;20640;-72
2021/09/13 06:51:14;;;;;;;2.60;1.27;;;;;;;;;;4992463;28;20192;-73
2021/09/13 06:53:40;;;;;;;2.50;1.97;;;;;;;;;;4992877;28;20413;-73
2021/09/13 06:56:06;;;;;;;3.53;1.43;;;;;;;;;;4991907;28;20993;-74
2021/09/13 06:58:33;;;;;;;1.67;1.50;;;;;;;;;;4992546;28;21005;-74
2021/09/13 07:00:59;;;;;;;1.40;1.30;;;;;;;;;;4992507;28;20471;-74
2021/09/13 07:03:25;;;;;;;2.22;2.03;;;;;;;;;;4992484;28;20395;-74
2021/09/13 07:05:51;;;;;;;1.97;1.70;;;;;;;;;;4990782;28;20692;-72
2021/09/13 07:08:18;;;;;;;2.90;1.97;;;;;;;;;;5000925;28;20789;-74
2021/09/13 07:10:44;;;;;;;1.50;1.40;;;;;;;;;;5012305;28;20451;-73
2021/09/13 07:13:10;;;;;;;2.03;1.40;;;;;;;;;;5008089;28;20918;-74
2021/09/13 07:15:36;;;;;;;1.10;1.00;;;;;;;;;;4991635;28;20490;-73
2021/09/13 07:18:02;;;;;;;2.03;1.93;;;;;;;;;;4990404;28;20397;-73
2021/09/13 07:20:28;;;;;;;2.10;1.00;;;;;;;;;;4991704;28;21017;-74
2021/09/13 07:22:53;;;;;;;1.30;1.20;;;;;;;;;;4992546;28;20407;-73
2021/09/13 07:25:19;;;;;;;1.97;1.73;;;;;;;;;;4991495;28;20509;-73
2021/09/13 07:27:45;;;;;;;1.33;1.23;;;;;;;;;;4990966;28;20953;-73
2021/09/13 07:30:12;;;;;;;1.70;1.47;;;;;;;;;;4992297;28;20417;-73
2021/09/13 07:32:39;;;;;;;4.80;2.07;;;;;;;;;;4991560;28;20458;-73
2021/09/13 07:35:06;;;;;;;2.97;2.27;;;;;;;;;;4991910;28;20467;-73
2021/09/13 07:37:33;;;;;;;1.53;1.37;;;;;;;;;;4999590;28;20446;-74
2021/09/13 07:39:59;;;;;;;1.20;1.10;;;;;;;;;;5011096;28;20418;-74
2021/09/13 07:42:25;;;;;;;1.40;1.30;;;;;;;;;;5011835;28;20500;-73
2021/09/13 07:44:51;;;;;;;0.90;0.80;;;;;;;;;;5011812;28;20387;-73
2021/09/13 07:47:19;;;;;;;2.20;2.00;;;;;;;;;;4993791;28;20416;-72
2021/09/13 07:49:45;;;;;;;2.30;2.10;;;;;;;;;;4992275;28;20944;-72
2021/09/13 07:52:11;;;;;;;2.30;2.20;;;;;;;;;;4990687;28;20388;-72
2021/09/13 07:54:37;;;;;;;2.10;2.00;;;;;;;;;;4991658;28;20870;-73
2021/09/13 07:57:03;;;;;;;1.93;1.70;;;;;;;;;;4989756;28;20442;-73
2021/09/13 07:59:29;;;;;;;2.50;2.33;;;;;;;;;;4991482;28;20445;-72
2021/09/13 08:01:55;;;;;;;1.90;1.80;;;;;;;;;;4991844;28;20528;-73
2021/09/13 08:04:21;;;;;;;1.83;1.73;;;;;;;;;;4992092;28;20388;-73
2021/09/13 08:06:47;;;;;;;1.03;0.93;;;;;;;;;;4999213;28;20428;-72
2021/09/13 08:09:13;;;;;;;2.50;1.03;;;;;;;;;;5004541;28;20453;-73
2021/09/13 08:11:40;;;;;;;2.97;2.77;;;;;;;;;;5002704;28;20471;-73
2021/09/13 08:14:06;;;;;;;1.67;1.30;;;;;;;;;;4995595;28;20407;-73
2021/09/13 08:16:32;;;;;;;1.80;1.70;;;;;;;;;;4994978;28;20430;-73
2021/09/13 08:18:59;;;;;;;1.73;1.40;;;;;;;;;;4995815;28;20396;-73
2021/09/13 08:21:27;;;;;;;2.07;1.77;;;;;;;;;;4995442;28;20448;-73
2021/09/13 08:23:53;;;;;;;2.13;1.73;;;;;;;;;;4995470;28;20419;-72
2021/09/13 08:26:18;;;;;;;1.73;1.17;;;;;;;;;;4993966;28;20438;-72
2021/09/13 08:28:45;;;;;;;4.20;2.10;;;;;;;;;;4994217;28;20856;-73
2021/09/13 08:31:11;;;;;;;1.90;1.70;;;;;;;;;;4995655;28;20508;-72
2021/09/13 08:33:37;;;;;;;1.97;1.80;;;;;;;;;;4995427;28;20497;-73
2021/09/13 08:36:04;;;;;;;1.00;0.90;;;;;;;;;;4994554;28;20437;-73
2021/09/13 08:38:30;;;;;;;1.87;1.77;;;;;;;;;;5002743;28;20414;-72
2021/09/13 08:40:56;;;;;;;3.20;2.90;;;;;;;;;;4993664;28;20481;-73
2021/09/13 08:43:22;;;;;;;4.10;1.53;;;;;;;;;;4994903;28;20480;-73
2021/09/13 08:45:53;;;;;;;2.03;1.53;;;;;;;;;;4994657;28;20438;-72
2021/09/13 08:53:18;;;;;;;1.87;1.33;;;;;;;;;;4994868;28;20405;-73
2021/09/13 08:58:17;;;;;;;2.20;2.03;;;;;;;;;;5021954;28;20572;-72
2021/09/13 09:00:43;;;;;;;2.23;1.53;;;;;;;;;;5032528;28;20456;-75
2021/09/13 09:03:39;;;;;;;1.30;1.20;;;;;;;;;;5033530;28;20570;-73
2021/09/13 09:06:05;;;;;;;2.90;2.63;;;;;;;;;;5036212;28;20436;-73
2021/09/13 09:08:32;;;;;;;1.30;1.10;;;;;;;;;;5046743;28;20409;-73
2021/09/13 09:11:03;;;;;;;2.10;1.67;;;;;;;;;;5033446;28;20433;-73
2021/09/13 09:13:41;;;;;;;3.53;3.10;;;;;;;;;;5033104;28;20425;-73
2021/09/13 09:16:07;;;;;;;4.70;4.30;;;;;;;;;;5032836;28;20408;-73
2021/09/13 09:18:41;;;;;;;4.20;1.80;;;;;;;;;;5033881;28;20405;-73
2021/09/13 09:21:10;;;;;;;3.00;1.60;;;;;;;;;;5033462;28;20454;-73
2021/09/13 09:23:55;;;;;;;2.83;1.30;;;;;;;;;;5032899;28;20429;-73
2021/09/13 09:26:21;;;;;;;1.63;1.53;;;;;;;;;;5030791;28;20444;-73
2021/09/13 09:28:47;;;;;;;1.57;1.43;;;;;;;;;;5033096;28;20422;-73
2021/09/13 09:31:13;;;;;;;1.37;1.27;;;;;;;;;;5018721;28;20442;-73
2021/09/13 09:33:39;;;;;;;3.17;1.50;;;;;;;;;;5031234;28;20395;-73
2021/09/13 09:36:12;;;;;;;2.07;1.20;;;;;;;;;;5033222;28;20448;-73
2021/09/13 09:38:40;;;;;;;1.87;1.77;;;;;;;;;;5044811;28;20408;-73
2021/09/13 09:41:07;;;;;;;2.67;1.80;;;;;;;;;;5048877;28;20946;-73
2021/09/13 09:43:49;;;;;;;3.90;1.80;;;;;;;;;;5032221;28;20432;-73
2021/09/13 09:46:15;;;;;;;3.93;2.03;;;;;;;;;;5032623;28;20429;-73
2021/09/13 09:48:41;;;;;;;2.27;1.40;;;;;;;;;;5024797;28;20421;-73
2021/09/13 09:51:25;;;;;;;2.63;1.90;;;;;;;;;;5013618;28;20411;-73
2021/09/13 09:53:51;;;;;;;2.97;2.70;;;;;;;;;;5013323;28;20906;-73
2021/09/13 09:56:17;;;;;;;2.27;2.17;;;;;;;;;;5027352;28;20457;-73
2021/09/13 09:59:00;;;;;;;2.90;2.00;;;;;;;;;;5033227;28;20908;-73
2021/09/13 10:01:57;;;;;;;2.73;2.13;;;;;;;;;;5032612;28;20551;-73
2021/09/13 10:04:25;;;;;;;3.23;3.00;;;;;;;;;;4993737;28;20433;-73
2021/09/13 10:06:52;;;;;;;2.53;2.33;;;;;;;;;;5032857;28;20440;-72
2021/09/13 10:09:19;;;;;;;2.67;2.47;;;;;;;;;;5039170;28;20450;-73
2021/09/13 10:11:45;;;;;;;3.23;2.93;;;;;;;;;;5032387;28;20425;-73
2021/09/13 10:14:16;;;;;;;4.17;3.07;;;;;;;;;;5032990;28;20784;-75
2021/09/13 10:16:43;;;;;;;1.27;1.07;;;;;;;;;;5032161;28;20432;-73
2021/09/13 10:19:09;;;;;;;1.80;1.70;;;;;;;;;;5032535;28;20381;-73
2021/09/13 10:21:36;;;;;;;1.70;1.60;;;;;;;;;;5032640;28;20872;-73
2021/09/13 10:24:02;;;;;;;1.37;1.17;;;;;;;;;;5032158;28;20942;-73
2021/09/13 10:26:29;;;;;;;3.83;1.40;;;;;;;;;;5031219;28;20497;-73
2021/09/13 10:29:04;;;;;;;1.60;1.50;;;;;;;;;;5032709;28;20951;-73
2021/09/13 10:31:42;;;;;;;1.60;1.40;;;;;;;;;;5032070;28;20508;-73
2021/09/13 10:34:17;;;;;;;2.23;1.70;;;;;;;;;;5031252;28;20505;-73
2021/09/13 10:37:00;;;;;;;2.40;2.13;;;;;;;;;;5040281;28;20887;-73
2021/09/13 10:39:44;;;;;;;2.80;2.60;;;;;;;;;;5036975;28;20432;-73
2021/09/13 10:42:10;;;;;;;1.57;1.20;;;;;;;;;;5031043;28;20527;-72
2021/09/13 10:44:36;;;;;;;3.73;1.93;;;;;;;;;;5032233;28;20442;-72
2021/09/13 10:47:05;;;;;;;2.20;2.10;;;;;;;;;;5031204;28;20442;-72
2021/09/13 10:49:32;;;;;;;2.43;2.23;;;;;;;;;;5032313;28;20899;-72
2021/09/13 10:52:16;;;;;;;1.53;1.43;;;;;;;;;;5030872;28;20445;-73
2021/09/13 10:55:01;;;;;;;0.90;0.83;;;;;;;;;;5025781;28;20575;-72
2021/09/13 10:57:45;;;;;;;6.63;2.00;;;;;;;;;;5030962;28;20456;-72
2021/09/13 11:00:11;;;;;;;4.40;1.30;;;;;;;;;;5031580;28;20517;-72
2021/09/13 11:02:37;;;;;;;1.20;1.10;;;;;;;;;;5031801;28;20544;-72
2021/09/13 11:05:20;;;;;;;1.40;1.30;;;;;;;;;;5031843;28;20905;-72
2021/09/13 11:08:04;;;;;;;2.20;2.00;;;;;;;;;;5037338;28;20465;-72
2021/09/13 11:10:43;;;;;;;2.40;1.53;;;;;;;;;;5034556;28;20422;-72
2021/09/13 11:13:09;;;;;;;1.30;1.10;;;;;;;;;;5031950;28;20414;-72
2021/09/13 11:15:35;;;;;;;1.23;1.10;;;;;;;;;;5031733;28;20419;-73
2021/09/13 11:18:02;;;;;;;1.73;1.40;;;;;;;;;;5030794;28;20419;-72
2021/09/13 11:20:28;;;;;;;1.60;1.50;;;;;;;;;;5030128;28;20427;-72
2021/09/13 11:22:54;;;;;;;1.33;1.23;;;;;;;;;;5031084;28;20432;-72
2021/09/13 11:25:20;;;;;;;1.40;1.30;;;;;;;;;;5011702;28;20423;-73
2021/09/13 11:27:58;;;;;;;0.80;0.80;;;;;;;;;;5011021;28;20437;-72
2021/09/13 11:30:40;;;;;;;1.67;1.30;;;;;;;;;;5021511;28;20436;-72
2021/09/13 11:33:06;;;;;;;1.70;1.60;;;;;;;;;;5031233;28;20432;-73
2021/09/13 11:35:32;;;;;;;1.80;1.70;;;;;;;;;;5030869;28;20435;-72
2021/09/13 11:37:59;;;;;;;1.10;0.97;;;;;;;;;;5041466;28;20870;-72
2021/09/13 11:40:26;;;;;;;1.77;1.37;;;;;;;;;;5051540;28;20412;-72
2021/09/13 11:42:51;;;;;;;0.80;0.77;;;;;;;;;;5037739;28;20519;-72
2021/09/13 11:45:17;;;;;;;1.63;1.53;;;;;;;;;;5031986;28;20469;-72
2021/09/13 11:47:44;;;;;;;1.10;1.00;;;;;;;;;;5034471;28;21002;-73
2021/09/13 11:50:10;;;;;;;1.00;0.90;;;;;;;;;;5034814;28;20427;-73
2021/09/13 11:52:37;;;;;;;1.30;1.17;;;;;;;;;;5033654;28;20468;-72
2021/09/13 11:55:10;;;;;;;3.43;1.40;;;;;;;;;;5034201;28;20499;-72
2021/09/13 11:57:45;;;;;;;2.50;1.07;;;;;;;;;;5021314;28;20472;-73
2021/09/13 12:00:13;;;;;;;1.60;1.50;;;;;;;;;;5035170;28;20431;-72
2021/09/13 12:02:44;;;;;;;4.37;1.60;;;;;;;;;;5025784;28;20519;-72
2021/09/13 12:05:20;;;;;;;1.53;1.43;;;;;;;;;;5034980;28;20432;-72
2021/09/13 12:07:48;;;;;;;1.33;1.07;;;;;;;;;;5041053;28;20506;-72
2021/09/13 12:10:20;;;;;;;0.80;0.80;;;;;;;;;;5055215;28;20439;-72
2021/09/13 12:12:48;;;;;;;1.80;1.70;;;;;;;;;;5055145;28;20392;-72
2021/09/13 12:15:14;;;;;;;0.93;0.90;;;;;;;;;;5040353;28;20962;-72
2021/09/13 12:17:44;;;;;;;1.60;1.50;;;;;;;;;;5033561;28;20464;-72
2021/09/13 12:20:10;;;;;;;1.90;1.70;;;;;;;;;;5033741;28;20428;-72
2021/09/13 12:22:36;;;;;;;1.77;1.67;;;;;;;;;;5035095;28;20502;-73
2021/09/13 12:25:16;;;;;;;1.10;1.03;;;;;;;;;;5034611;28;20922;-72
2021/09/13 12:27:49;;;;;;;1.20;1.10;;;;;;;;;;5033948;28;20482;-73
2021/09/13 12:30:17;;;;;;;1.77;1.57;;;;;;;;;;5035093;28;20412;-73
2021/09/13 12:32:49;;;;;;;1.33;1.20;;;;;;;;;;5033985;28;20430;-73
2021/09/13 12:35:15;;;;;;;1.73;1.63;;;;;;;;;;5034461;28;20424;-73
2021/09/13 12:37:41;;;;;;;1.43;1.33;;;;;;;;;;5040243;28;20522;-73
2021/09/13 12:40:11;;;;;;;1.97;1.83;;;;;;;;;;5034583;28;20419;-73
2021/09/13 12:42:54;;;;;;;2.80;2.00;;;;;;;;;;5034519;28;20510;-73
2021/09/13 12:45:21;;;;;;;1.20;1.10;;;;;;;;;;5034646;28;20416;-73
2021/09/13 12:47:53;;;;;;;2.17;2.07;;;;;;;;;;5032969;28;20475;-73
2021/09/13 12:50:27;;;;;;;3.60;2.10;;;;;;;;;;5033947;28;20427;-73
2021/09/13 12:52:53;;;;;;;2.20;1.40;;;;;;;;;;5034402;28;20444;-73
2021/09/13 12:55:20;;;;;;;0.97;0.87;;;;;;;;;;5034245;28;20447;-74
2021/09/13 12:57:46;;;;;;;3.60;2.47;;;;;;;;;;5030502;28;20472;-73
2021/09/13 13:00:13;;;;;;;1.10;0.70;;;;;;;;;;5034186;28;20765;-73
2021/09/13 13:02:39;;;;;;;1.50;1.40;;;;;;;;;;5033682;28;21215;-73
2021/09/13 13:05:21;;;;;;;0.70;0.60;;;;;;;;;;5014354;28;20912;-74
2021/09/13 13:07:47;;;;;;;1.73;1.63;;;;;;;;;;5040312;28;20924;-73
2021/09/13 13:10:13;;;;;;;1.67;1.57;;;;;;;;;;5054534;28;20399;-73
2021/09/13 13:12:39;;;;;;;1.73;0.83;;;;;;;;;;5054140;28;20846;-73
2021/09/13 13:15:05;;;;;;;2.57;1.50;;;;;;;;;;5046496;28;20417;-73
2021/09/13 13:17:31;;;;;;;1.00;0.90;;;;;;;;;;5032722;28;20489;-73
2021/09/13 13:19:57;;;;;;;1.07;1.07;;;;;;;;;;5033639;28;20425;-73
2021/09/13 13:22:23;;;;;;;1.40;1.07;;;;;;;;;;5032809;28;20595;-72
2021/09/13 13:24:49;;;;;;;1.10;1.10;;;;;;;;;;5033920;28;20416;-73
2021/09/13 13:27:15;;;;;;;0.80;0.80;;;;;;;;;;5032742;28;20451;-73
2021/09/13 13:29:41;;;;;;;1.27;1.23;;;;;;;;;;5033245;28;20421;-73
2021/09/13 13:32:07;;;;;;;1.00;0.97;;;;;;;;;;5033453;28;20938;-72
2021/09/13 13:34:33;;;;;;;1.23;1.00;;;;;;;;;;5033179;28;20416;-72
2021/09/13 13:36:59;;;;;;;1.43;1.30;;;;;;;;;;5033196;28;21018;-73
2021/09/13 13:39:25;;;;;;;1.17;1.07;;;;;;;;;;5043132;28;20453;-73
2021/09/13 13:41:51;;;;;;;1.40;1.07;;;;;;;;;;5027292;28;20549;-73
2021/09/13 13:44:17;;;;;;;1.33;1.23;;;;;;;;;;5025343;28;20440;-73
2021/09/13 13:46:43;;;;;;;1.00;0.70;;;;;;;;;;5032349;28;20422;-73
2021/09/13 13:49:09;;;;;;;0.70;0.60;;;;;;;;;;5032859;28;20412;-73
2021/09/13 13:51:35;;;;;;;1.07;0.93;;;;;;;;;;5033001;28;20460;-72
2021/09/13 13:54:01;;;;;;;0.90;0.90;;;;;;;;;;5025515;28;20495;-73
2021/09/13 13:56:28;;;;;;;1.40;1.30;;;;;;;;;;5012691;28;20511;-72
2021/09/13 13:58:54;;;;;;;0.90;0.90;;;;;;;;;;5030838;28;20804;-73
2021/09/13 14:01:20;;;;;;;1.00;0.90;;;;;;;;;;5032949;28;20479;-73
2021/09/13 14:03:45;;;;;;;1.03;0.93;;;;;;;;;;5032071;28;20766;-72
2021/09/13 14:06:11;;;;;;;1.17;1.17;;;;;;;;;;5036454;28;20942;-72
2021/09/13 14:08:37;;;;;;;1.17;1.07;;;;;;;;;;5044271;28;20408;-72
2021/09/13 14:11:03;;;;;;;1.03;0.93;;;;;;;;;;5041027;28;20444;-72
2021/09/13 14:13:30;;;;;;;1.20;0.90;;;;;;;;;;5032502;28;20448;-72
2021/09/13 14:15:56;;;;;;;2.20;1.20;;;;;;;;;;5030397;28;20452;-72
2021/09/13 14:18:22;;;;;;;0.90;0.80;;;;;;;;;;5032383;28;20413;-72
2021/09/13 14:20:48;;;;;;;1.40;1.30;;;;;;;;;;5032564;28;20488;-72
2021/09/13 14:23:14;;;;;;;1.60;1.00;;;;;;;;;;5032288;28;20872;-72
2021/09/13 14:25:40;;;;;;;0.83;0.83;;;;;;;;;;5032306;28;20486;-72
2021/09/13 14:28:06;;;;;;;1.10;0.80;;;;;;;;;;5031710;28;20413;-72
2021/09/13 14:30:32;;;;;;;1.47;1.37;;;;;;;;;;5030309;28;20448;-72
2021/09/13 14:32:58;;;;;;;1.10;0.70;;;;;;;;;;5013469;28;20428;-72
2021/09/13 14:35:24;;;;;;;1.73;1.63;;;;;;;;;;5032652;28;20800;-72
2021/09/13 14:37:50;;;;;;;1.87;1.77;;;;;;;;;;5041024;28;20413;-72
2021/09/13 14:40:16;;;;;;;1.30;1.20;;;;;;;;;;5023557;28;20533;-72
2021/09/13 14:42:42;;;;;;;3.07;1.10;;;;;;;;;;5026343;28;20508;-73
2021/09/13 14:45:08;;;;;;;1.13;1.03;;;;;;;;;;5031783;28;20432;-73
2021/09/13 14:47:34;;;;;;;1.13;1.00;;;;;;;;;;5029592;28;20433;-71
2021/09/13 14:50:02;;;;;;;1.43;1.33;;;;;;;;;;5025025;28;20446;-71
2021/09/13 14:52:28;;;;;;;0.70;0.60;;;;;;;;;;5031958;28;20455;-72
2021/09/13 14:54:54;;;;;;;1.93;1.53;;;;;;;;;;5031957;28;20573;-72
2021/09/13 14:57:20;;;;;;;1.23;1.13;;;;;;;;;;5031049;28;21154;-72